Time;durP1;ratioP1;P1;durP2;ratioP2;P2;SDS_P1;SDS_P2;PMS_P1;PMS_P2;Temp;Humidity;BMP_temperature;BMP_pressure;BME280_temperature;BME280_humidity;BME280_pressure;Samples;Min_cycle;Max_cycle;Signal;HPM_P1;HPM_P2
2023/03/23 00:01:58;;;;;;;3.95;3.15;;;11.40;99.90;;;;;;5078946;28;20048;-73
2023/03/23 00:04:26;;;;;;;5.03;4.20;;;10.50;99.90;;;;;;5053731;28;20056;-73
2023/03/23 00:06:52;;;;;;;5.30;4.38;;;11.50;99.90;;;;;;5081925;28;20055;-73
2023/03/23 00:09:23;;;;;;;4.75;4.35;;;10.60;99.90;;;;;;5072397;28;20133;-73
2023/03/23 00:11:50;;;;;;;7.55;5.50;;;10.60;99.90;;;;;;5084513;28;20055;-74
2023/03/23 00:14:16;;;;;;;6.40;5.43;;;10.70;99.90;;;;;;5085452;28;20104;-74
2023/03/23 00:16:42;;;;;;;;;;;10.70;99.90;;;;;;5058951;28;20083;-74
2023/03/23 00:19:14;;;;;;;7.47;6.30;;;10.80;99.90;;;;;;5082684;28;20363;-73
2023/03/23 00:21:41;;;;;;;7.60;6.78;;;11.90;99.90;;;;;;5073834;28;20040;-74
2023/03/23 00:24:10;;;;;;;7.07;5.68;;;11.90;99.90;;;;;;5069792;28;20045;-75
2023/03/23 00:26:40;;;;;;;5.10;4.60;;;11.00;99.90;;;;;;5086151;28;20098;-74
2023/03/23 00:29:10;;;;;;;5.95;4.40;;;10.90;99.90;;;;;;5053672;28;20040;-74
2023/03/23 00:31:35;;;;;;;4.40;4.00;;;11.90;99.90;;;;;;5080027;28;20527;-74
2023/03/23 00:34:03;;;;;;;6.13;4.45;;;10.80;99.90;;;;;;5084076;28;20082;-74
2023/03/23 00:36:31;;;;;;;5.43;4.15;;;10.80;99.90;;;;;;5079716;28;20431;-74
2023/03/23 00:39:01;;;;;;;5.47;4.95;;;10.60;99.90;;;;;;5072230;28;20047;-74
2023/03/23 00:41:27;;;;;;;8.90;7.00;;;11.80;99.90;;;;;;5078575;28;20078;-75
2023/03/23 00:44:00;;;;;;;7.18;6.40;;;11.90;99.90;;;;;;5083275;28;20071;-74
2023/03/23 00:46:27;;;;;;;9.05;7.15;;;10.80;99.90;;;;;;5086952;28;20144;-74
2023/03/23 00:48:54;;;;;;;10.73;7.47;;;12.20;99.90;;;;;;5078394;28;20044;-75
2023/03/23 00:51:20;;;;;;;12.00;8.75;;;12.20;99.90;;;;;;5076462;28;20040;-74
2023/03/23 00:53:47;;;;;;;13.23;8.02;;;12.10;99.90;;;;;;5085255;28;20049;-75
2023/03/23 00:56:13;;;;;;;7.53;6.53;;;12.00;99.90;;;;;;5070945;28;20105;-74
2023/03/23 00:58:39;;;;;;;8.77;7.00;;;10.80;99.90;;;;;;5066287;28;20081;-74
2023/03/23 01:01:05;;;;;;;9.00;7.18;;;11.10;99.90;;;;;;5082560;28;20040;-74
2023/03/23 01:03:31;;;;;;;8.98;6.07;;;12.20;99.90;;;;;;5074195;28;20064;-74
2023/03/23 01:05:57;;;;;;;7.03;4.45;;;12.20;99.90;;;;;;5070824;28;20128;-74
2023/03/23 01:08:23;;;;;;;5.97;4.35;;;10.70;99.90;;;;;;5089049;28;20126;-74
2023/03/23 01:10:50;;;;;;;5.15;3.40;;;11.70;99.90;;;;;;5085628;28;20075;-74
2023/03/23 01:13:16;;;;;;;4.30;2.83;;;10.70;99.90;;;;;;5072660;28;20040;-74
2023/03/23 01:15:42;;;;;;;;;;;11.10;99.90;;;;;;5079390;28;20040;-74
2023/03/23 01:18:09;;;;;;;2.88;1.70;;;11.20;99.90;;;;;;5083678;28;20331;-75
2023/03/23 01:20:36;;;;;;;3.20;1.60;;;10.80;99.90;;;;;;5089384;28;20498;-74
2023/03/23 01:23:02;;;;;;;1.80;1.42;;;10.90;99.90;;;;;;5081146;28;20493;-74
2023/03/23 01:25:30;;;;;;;6.45;1.98;;;10.90;99.90;;;;;;5069398;28;20051;-74
2023/03/23 01:27:57;;;;;;;3.53;2.30;;;10.90;99.90;;;;;;5065588;28;20521;-74
2023/03/23 01:30:24;;;;;;;6.15;3.60;;;10.80;99.90;;;;;;5090169;28;20076;-73
2023/03/23 01:32:51;;;;;;;5.03;3.55;;;11.10;99.90;;;;;;5076880;28;20045;-73
2023/03/23 01:35:17;;;;;;;6.57;4.10;;;11.10;99.90;;;;;;5053343;28;20042;-74
2023/03/23 01:37:43;;;;;;;7.05;4.97;;;11.00;99.90;;;;;;5070514;28;20049;-74
2023/03/23 01:40:10;;;;;;;6.80;4.93;;;10.90;99.90;;;;;;5082444;28;20160;-74
2023/03/23 01:42:38;;;;;;;7.35;4.97;;;11.10;99.90;;;;;;5063164;28;20353;-74
2023/03/23 01:45:25;;;;;;;6.03;4.85;;;11.10;99.90;;;;;;5069915;28;20442;-74
2023/03/23 01:47:55;;;;;;;;;;;11.40;99.90;;;;;;5070409;28;20123;-74
2023/03/23 01:50:23;;;;;;;9.43;5.40;;;11.50;99.90;;;;;;5082507;28;19916;-74
2023/03/23 01:52:51;;;;;;;6.30;5.03;;;11.50;99.90;;;;;;5063576;28;20597;-74
2023/03/23 01:55:18;;;;;;;7.43;4.97;;;11.30;99.90;;;;;;5070922;28;20055;-74
2023/03/23 01:57:45;;;;;;;7.22;5.15;;;11.50;99.90;;;;;;5084635;28;20127;-74
2023/03/23 02:00:15;;;;;;;7.57;5.20;;;11.20;99.90;;;;;;5089627;28;20593;-74
2023/03/23 02:02:43;;;;;;;9.10;5.70;;;11.20;99.90;;;;;;5081227;28;20491;-74
2023/03/23 02:05:19;;;;;;;7.68;5.20;;;11.40;99.90;;;;;;5087703;28;20051;-74
2023/03/23 02:07:46;;;;;;;8.68;5.82;;;11.30;99.90;;;;;;5079651;28;20092;-74
2023/03/23 02:10:11;;;;;;;7.20;4.90;;;11.60;99.90;;;;;;5073781;28;20369;-74
2023/03/23 02:12:37;;;;;;;8.07;4.97;;;11.50;99.90;;;;;;5079812;28;20055;-74
2023/03/23 02:15:04;;;;;;;8.93;5.45;;;11.50;99.90;;;;;;5072642;28;20137;-74
2023/03/23 02:17:52;;;;;;;7.32;4.90;;;11.60;99.90;;;;;;5082183;28;20044;-74
2023/03/23 02:20:17;;;;;;;;;;;11.40;99.90;;;;;;5075602;28;20392;-74
2023/03/23 02:23:12;;;;;;;8.32;4.78;;;11.50;99.90;;;;;;5076110;28;19920;-73
2023/03/23 02:25:53;;;;;;;8.30;4.43;;;11.50;99.90;;;;;;5087522;28;20044;-73
2023/03/23 02:28:29;;;;;;;9.32;5.03;;;11.50;99.90;;;;;;5077595;28;20025;-74
2023/03/23 02:30:55;;;;;;;8.98;5.10;;;11.60;99.90;;;;;;5056408;28;20037;-74
2023/03/23 02:33:32;;;;;;;7.22;4.60;;;11.70;99.90;;;;;;5087451;28;20506;-74
2023/03/23 02:36:20;;;;;;;7.97;4.53;;;11.60;99.90;;;;;;5092494;28;20156;-74
2023/03/23 02:39:20;;;;;;;9.15;4.90;;;11.70;99.90;;;;;;5073674;28;20055;-74
2023/03/23 02:41:53;;;;;;;8.70;4.70;;;11.60;99.90;;;;;;5078150;28;20044;-74
2023/03/23 02:44:20;;;;;;;5.88;4.20;;;11.70;99.90;;;;;;5072316;28;20040;-74
2023/03/23 02:46:47;;;;;;;5.85;4.15;;;11.70;99.90;;;;;;5073749;28;20346;-74
2023/03/23 02:49:15;;;;;;;8.45;4.68;;;11.60;99.90;;;;;;5092202;28;20499;-74
2023/03/23 02:51:44;;;;;;;7.28;4.07;;;11.70;99.90;;;;;;5085787;28;20472;-74
2023/03/23 02:54:11;;;;;;;7.25;4.20;;;11.70;99.90;;;;;;5075356;28;20044;-75
2023/03/23 02:56:39;;;;;;;8.10;4.53;;;11.70;99.90;;;;;;5087375;28;20063;-74
2023/03/23 02:59:05;;;;;;;8.27;4.40;;;11.70;99.90;;;;;;5084414;28;20036;-75
2023/03/23 03:01:33;;;;;;;6.30;4.05;;;11.70;99.90;;;;;;5060387;28;20048;-74
2023/03/23 03:04:03;;;;;;;7.28;4.10;;;11.80;99.90;;;;;;5078771;28;20130;-74
2023/03/23 03:06:51;;;;;;;6.40;3.70;;;11.80;99.90;;;;;;5091188;28;20514;-73
2023/03/23 03:09:50;;;;;;;7.22;4.32;;;11.70;99.90;;;;;;5070414;28;20100;-73
2023/03/23 03:12:45;;;;;;;8.23;4.15;;;11.80;99.90;;;;;;5072916;28;20052;-74
2023/03/23 03:15:27;;;;;;;4.93;3.58;;;11.80;99.90;;;;;;5089105;28;20047;-74
2023/03/23 03:18:16;;;;;;;7.28;3.47;;;11.70;99.90;;;;;;5072951;28;20063;-73
2023/03/23 03:20:49;;;;;;;8.40;3.92;;;11.70;99.90;;;;;;5079013;28;20032;-73
2023/03/23 03:23:17;;;;;;;5.22;3.88;;;11.60;99.90;;;;;;5077060;28;20051;-73
2023/03/23 03:25:47;;;;;;;4.20;3.33;;;11.70;99.90;;;;;;5078570;28;20399;-73
2023/03/23 03:28:21;;;;;;;9.15;3.72;;;11.70;99.90;;;;;;5072409;28;20105;-73
2023/03/23 03:30:53;;;;;;;8.05;3.65;;;11.70;99.90;;;;;;5092192;28;20088;-74
2023/03/23 03:33:25;;;;;;;6.65;3.50;;;11.70;99.90;;;;;;5079004;28;20140;-74
2023/03/23 03:35:53;;;;;;;7.90;3.40;;;11.70;99.90;;;;;;5071874;28;20071;-74
2023/03/23 03:38:19;;;;;;;8.23;3.63;;;11.70;99.90;;;;;;5071566;28;20055;-74
2023/03/23 03:40:45;;;;;;;6.93;3.22;;;11.70;99.90;;;;;;5075089;28;20040;-74
2023/03/23 03:43:11;;;;;;;5.03;3.33;;;11.70;99.90;;;;;;5091427;28;20075;-74
2023/03/23 03:45:36;;;;;;;7.82;3.42;;;11.70;99.90;;;;;;5074925;28;20036;-74
2023/03/23 03:48:03;;;;;;;8.68;3.47;;;11.80;99.90;;;;;;5091365;28;20165;-74
2023/03/23 03:50:28;;;;;;;;;;;11.80;99.90;;;;;;5090847;28;20040;-73
2023/03/23 03:52:54;;;;;;;5.75;2.85;;;11.80;99.90;;;;;;5089743;28;19969;-73
2023/03/23 03:55:20;;;;;;;7.43;3.35;;;11.70;99.90;;;;;;5074606;28;20135;-74
2023/03/23 03:57:46;;;;;;;5.60;2.92;;;11.70;99.90;;;;;;5076604;28;20048;-74
2023/03/23 04:00:14;;;;;;;7.20;2.72;;;11.50;99.90;;;;;;5074465;28;20058;-73
2023/03/23 04:02:51;;;;;;;6.93;2.88;;;11.40;99.90;;;;;;5091966;28;20048;-74
2023/03/23 04:05:18;;;;;;;5.38;3.30;;;11.30;99.90;;;;;;5070819;28;20056;-73
2023/03/23 04:07:45;;;;;;;5.18;2.60;;;11.20;99.90;;;;;;5078598;28;20036;-73
2023/03/23 04:10:12;;;;;;;4.63;3.08;;;11.10;99.90;;;;;;5090268;28;20044;-74
2023/03/23 04:12:39;;;;;;;5.57;2.85;;;11.10;99.90;;;;;;5073907;28;20101;-74
2023/03/23 04:15:07;;;;;;;5.10;2.60;;;11.10;99.90;;;;;;5071883;28;20178;-73
2023/03/23 04:17:34;;;;;;;3.80;1.73;;;10.90;99.90;;;;;;5075203;28;20110;-73
2023/03/23 04:20:01;;;;;;;3.50;1.60;;;10.90;99.90;;;;;;5074889;28;20522;-73
2023/03/23 04:22:30;;;;;;;2.72;1.30;;;10.90;99.90;;;;;;5072042;28;20488;-73
2023/03/23 04:24:59;;;;;;;3.20;1.17;;;10.70;99.90;;;;;;5087285;28;20036;-73
2023/03/23 04:27:27;;;;;;;2.13;0.90;;;10.50;99.90;;;;;;5060154;28;20040;-73
2023/03/23 04:29:56;;;;;;;2.33;1.27;;;10.60;99.90;;;;;;5072229;28;20120;-73
2023/03/23 04:32:21;;;;;;;1.88;1.35;;;10.60;99.90;;;;;;5074140;28;20059;-73
2023/03/23 04:34:48;;;;;;;3.22;1.65;;;10.60;99.90;;;;;;5083171;28;20491;-73
2023/03/23 04:37:14;;;;;;;3.28;1.40;;;10.70;99.90;;;;;;5088788;28;20062;-74
2023/03/23 04:39:41;;;;;;;3.63;1.58;;;10.40;99.90;;;;;;5055887;28;20438;-75
2023/03/23 04:42:07;;;;;;;4.90;1.88;;;10.30;99.90;;;;;;5075493;28;20055;-74
2023/03/23 04:44:32;;;;;;;5.07;1.90;;;10.60;99.90;;;;;;5079639;28;20044;-73
2023/03/23 04:47:01;;;;;;;6.68;1.98;;;10.40;99.90;;;;;;5088162;28;20453;-73
2023/03/23 04:49:26;;;;;;;5.00;1.52;;;10.50;99.90;;;;;;5079365;28;20390;-73
2023/03/23 04:51:52;;;;;;;5.53;1.50;;;10.40;99.90;;;;;;5060492;28;20131;-73
2023/03/23 04:54:18;;;;;;;5.50;1.73;;;10.40;99.90;;;;;;5082665;28;20044;-73
2023/03/23 04:56:44;;;;;;;6.63;2.03;;;10.30;99.90;;;;;;5063485;28;20035;-73
2023/03/23 04:59:10;;;;;;;4.78;1.67;;;10.30;99.90;;;;;;5080291;28;20590;-73
2023/03/23 05:01:38;;;;;;;;;;;10.30;99.90;;;;;;5084864;28;20119;-73
2023/03/23 05:04:04;;;;;;;;;;;10.30;99.90;;;;;;5085812;28;20409;-74
2023/03/23 05:06:29;;;;;;;6.97;1.70;;;10.40;99.90;;;;;;5076859;28;19946;-73
2023/03/23 05:08:55;;;;;;;5.93;1.60;;;10.40;99.90;;;;;;5063225;28;20060;-73
2023/03/23 05:11:21;;;;;;;8.18;2.60;;;10.30;99.90;;;;;;5086091;28;20491;-73
2023/03/23 05:13:46;;;;;;;8.43;2.20;;;10.40;99.90;;;;;;5071449;28;20454;-73
2023/03/23 05:16:12;;;;;;;4.45;2.15;;;10.40;99.90;;;;;;5077590;28;20040;-73
2023/03/23 05:18:38;;;;;;;9.23;2.63;;;10.50;99.90;;;;;;5078012;28;20044;-73
2023/03/23 05:21:04;;;;;;;4.45;1.90;;;10.60;99.90;;;;;;5073785;28;20063;-74
2023/03/23 05:23:33;;;;;;;6.15;2.60;;;10.60;99.90;;;;;;5069883;28;20567;-73
2023/03/23 05:26:02;;;;;;;6.78;2.92;;;10.70;99.90;;;;;;5069658;28;20483;-74
2023/03/23 05:28:28;;;;;;;8.30;2.47;;;10.80;99.90;;;;;;5069279;28;20048;-74
2023/03/23 05:30:55;;;;;;;;;;;10.90;99.90;;;;;;5071618;28;20051;-74
2023/03/23 05:33:21;;;;;;;8.48;2.55;;;11.00;99.90;;;;;;5086650;28;20003;-74
2023/03/23 05:35:48;;;;;;;7.50;2.63;;;10.90;99.90;;;;;;5089462;28;20147;-74
2023/03/23 05:38:15;;;;;;;11.70;3.00;;;11.00;99.90;;;;;;5086719;28;20028;-74
2023/03/23 05:40:42;;;;;;;10.23;2.75;;;10.90;99.90;;;;;;5077080;28;20071;-74
2023/03/23 05:43:08;;;;;;;11.77;3.03;;;11.00;99.90;;;;;;5089318;28;20060;-74
2023/03/23 05:45:34;;;;;;;;;;;11.00;99.90;;;;;;5082081;28;20434;-74
2023/03/23 05:48:01;;;;;;;8.15;2.88;;;10.90;99.90;;;;;;5075897;28;20386;-75
2023/03/23 05:50:27;;;;;;;18.33;3.45;;;10.90;99.90;;;;;;5079747;28;20403;-74
2023/03/23 05:52:54;;;;;;;10.85;2.30;;;11.00;99.90;;;;;;5076802;28;20402;-74
2023/03/23 05:55:20;;;;;;;16.17;3.30;;;11.00;99.90;;;;;;5080337;28;20043;-74
2023/03/23 05:57:46;;;;;;;12.60;2.72;;;10.90;99.90;;;;;;5089880;28;20032;-74
2023/03/23 06:00:19;;;;;;;11.75;2.70;;;10.90;99.90;;;;;;5077416;28;20086;-74
2023/03/23 06:02:47;;;;;;;15.18;2.88;;;10.90;99.90;;;;;;5063457;28;20044;-74
2023/03/23 06:05:15;;;;;;;14.02;3.30;;;10.90;99.90;;;;;;5078090;28;20102;-75
2023/03/23 06:07:41;;;;;;;12.35;3.78;;;10.90;99.90;;;;;;5081363;28;20082;-75
2023/03/23 06:10:08;;;;;;;17.45;3.03;;;10.90;99.90;;;;;;5062061;28;20043;-75
2023/03/23 06:12:35;;;;;;;18.38;3.38;;;10.90;99.90;;;;;;5083475;28;20028;-76
2023/03/23 06:15:01;;;;;;;15.48;2.60;;;10.90;99.90;;;;;;5074778;28;20066;-77
2023/03/23 06:17:27;;;;;;;16.42;3.28;;;10.90;99.90;;;;;;5078701;28;20473;-76
2023/03/23 06:19:53;;;;;;;15.63;3.25;;;11.00;99.90;;;;;;5077906;28;20127;-75
2023/03/23 06:22:20;;;;;;;15.88;3.00;;;11.00;99.90;;;;;;5080596;28;20119;-76
2023/03/23 06:24:45;;;;;;;19.80;3.40;;;11.00;99.90;;;;;;5060402;28;20461;-75
2023/03/23 06:27:11;;;;;;;20.08;3.53;;;11.10;99.90;;;;;;5062327;28;20363;-75
2023/03/23 06:29:37;;;;;;;18.20;3.40;;;11.00;99.90;;;;;;5082087;28;20036;-76
2023/03/23 06:32:04;;;;;;;12.70;2.78;;;11.00;99.90;;;;;;5080867;28;20123;-74
2023/03/23 06:34:32;;;;;;;16.23;2.92;;;11.10;99.90;;;;;;5075100;28;20484;-76
2023/03/23 06:36:58;;;;;;;17.65;3.42;;;11.10;99.90;;;;;;5089065;28;20674;-76
2023/03/23 06:39:24;;;;;;;;;;;11.10;99.90;;;;;;5093008;28;20123;-74
2023/03/23 06:41:50;;;;;;;17.92;2.88;;;11.00;99.90;;;;;;5093772;28;20102;-74
2023/03/23 06:44:16;;;;;;;10.05;2.28;;;11.00;99.90;;;;;;5091154;28;20047;-75
2023/03/23 06:46:42;;;;;;;11.43;2.42;;;10.80;99.90;;;;;;5091228;28;20048;-75
2023/03/23 06:49:09;;;;;;;7.85;1.70;;;10.60;99.90;;;;;;5091451;28;20059;-75
2023/03/23 06:51:36;;;;;;;6.63;1.50;;;10.50;99.90;;;;;;5089115;28;20055;-76
2023/03/23 06:54:02;;;;;;;8.27;1.77;;;10.40;99.90;;;;;;5074291;28;20048;-75
2023/03/23 06:56:29;;;;;;;10.40;2.00;;;10.30;99.90;;;;;;5100754;28;20548;-75
2023/03/23 06:58:55;;;;;;;14.65;2.55;;;10.30;99.90;;;;;;5096049;28;20047;-75
2023/03/23 07:01:21;;;;;;;9.35;2.10;;;10.30;99.90;;;;;;5090685;28;20051;-76
2023/03/23 07:03:48;;;;;;;12.60;1.88;;;10.30;99.90;;;;;;5090169;28;20081;-74
2023/03/23 07:06:15;;;;;;;8.68;1.83;;;10.30;99.90;;;;;;5065596;28;20483;-74
2023/03/23 07:08:41;;;;;;;8.57;2.05;;;10.30;99.90;;;;;;5081415;28;20061;-75
2023/03/23 07:11:07;;;;;;;9.13;1.92;;;10.30;99.90;;;;;;5081841;28;20048;-75
2023/03/23 07:13:33;;;;;;;9.07;2.80;;;10.40;99.90;;;;;;5077433;28;20495;-77
2023/03/23 07:16:00;;;;;;;9.20;2.03;;;10.40;99.90;;;;;;5087138;28;20105;-76
2023/03/23 07:18:26;;;;;;;12.38;2.08;;;10.40;99.90;;;;;;5083109;28;20051;-76
2023/03/23 07:20:53;;;;;;;9.45;2.50;;;10.50;99.90;;;;;;5077097;28;20056;-75
2023/03/23 07:23:19;;;;;;;9.13;1.88;;;10.50;99.90;;;;;;5079495;28;20052;-77
2023/03/23 07:25:48;;;;;;;13.35;2.67;;;10.60;99.90;;;;;;5065046;28;20036;-76
2023/03/23 07:28:14;;;;;;;13.38;2.80;;;10.60;99.90;;;;;;5081488;28;20040;-76
2023/03/23 07:30:40;;;;;;;;;;;10.60;99.90;;;;;;5080797;28;20040;-76
2023/03/23 07:33:07;;;;;;;16.48;3.63;;;10.70;99.90;;;;;;5062858;28;19939;-76
2023/03/23 07:35:34;;;;;;;18.13;3.45;;;10.80;99.90;;;;;;5079673;28;20090;-76
2023/03/23 07:37:59;;;;;;;;;;;10.90;99.90;;;;;;5082430;28;20540;-76
2023/03/23 07:40:26;;;;;;;13.18;3.20;;;11.10;99.90;;;;;;5092127;28;19920;-76
2023/03/23 07:42:56;;;;;;;19.20;3.75;;;11.10;99.90;;;;;;5091029;28;20127;-75
2023/03/23 07:45:23;;;;;;;18.17;3.72;;;11.10;99.90;;;;;;5073980;28;20475;-75
2023/03/23 07:47:49;;;;;;;15.45;3.38;;;11.20;99.90;;;;;;5032010;28;1101852;-77
2023/03/23 07:50:15;;;;;;;;;;;11.30;99.90;;;;;;5074750;28;20441;-77
2023/03/23 07:52:41;;;;;;;19.40;3.88;;;11.40;99.90;;;;;;5090765;28;19916;-76
2023/03/23 07:55:17;;;;;;;17.75;3.50;;;11.50;99.90;;;;;;5090825;28;20048;-77
2023/03/23 07:57:43;;;;;;;24.75;4.03;;;11.60;99.90;;;;;;5090601;28;20036;-75
2023/03/23 08:00:14;;;;;;;17.75;4.38;;;11.60;99.90;;;;;;5075919;28;20130;-75
2023/03/23 08:02:41;;;;;;;20.80;3.83;;;11.70;99.90;;;;;;5090396;28;20078;-75
2023/03/23 08:05:08;;;;;;;25.88;4.35;;;11.70;99.90;;;;;;5082558;28;20050;-76
2023/03/23 08:07:34;;;;;;;23.77;3.83;;;11.70;99.90;;;;;;5091989;28;20499;-75
2023/03/23 08:10:01;;;;;;;16.63;3.50;;;11.70;99.90;;;;;;5092085;28;20093;-76
2023/03/23 08:12:27;;;;;;;18.30;3.75;;;11.70;99.90;;;;;;5090883;28;20075;-76
2023/03/23 08:14:53;;;;;;;18.40;3.80;;;11.70;99.90;;;;;;5085663;28;20443;-75
2023/03/23 08:17:19;;;;;;;16.92;3.63;;;11.70;99.90;;;;;;5085138;28;20044;-76
2023/03/23 08:19:45;;;;;;;23.52;3.97;;;11.70;99.90;;;;;;5090474;28;20051;-74
2023/03/23 08:22:11;;;;;;;21.88;4.57;;;11.70;99.90;;;;;;5087439;28;20074;-75
2023/03/23 08:24:37;;;;;;;19.05;4.88;;;11.70;99.90;;;;;;5068155;28;20444;-75
2023/03/23 08:27:03;;;;;;;19.67;4.07;;;11.80;99.90;;;;;;5090434;28;20046;-75
2023/03/23 08:29:30;;;;;;;22.63;5.05;;;11.80;99.90;;;;;;5073461;28;20502;-76
2023/03/23 08:31:58;;;;;;;21.33;4.15;;;11.80;99.90;;;;;;5090114;28;20043;-75
2023/03/23 08:34:24;;;;;;;20.23;4.28;;;11.80;99.90;;;;;;5090219;28;20048;-74
2023/03/23 08:36:51;;;;;;;23.35;3.85;;;11.80;99.90;;;;;;5090290;28;20123;-76
2023/03/23 08:39:17;;;;;;;15.70;3.75;;;11.70;99.90;;;;;;5089762;28;20498;-75
2023/03/23 08:41:44;;;;;;;21.35;4.13;;;11.80;99.90;;;;;;5089827;28;20411;-76
2023/03/23 08:44:10;;;;;;;22.13;3.97;;;11.90;99.90;;;;;;5089641;28;20052;-75
2023/03/23 08:46:36;;;;;;;16.80;3.20;;;12.00;99.90;;;;;;5090041;28;20430;-74
2023/03/23 08:49:02;;;;;;;16.17;3.83;;;12.10;99.90;;;;;;5089840;28;20052;-75
2023/03/23 08:51:28;;;;;;;21.33;3.67;;;12.10;99.90;;;;;;5073171;28;20135;-75
2023/03/23 08:53:54;;;;;;;21.33;3.75;;;12.20;99.90;;;;;;5090864;28;20051;-74
2023/03/23 08:56:20;;;;;;;20.80;4.22;;;12.30;99.90;;;;;;5057659;28;20074;-74
2023/03/23 08:58:47;;;;;;;22.33;3.95;;;12.40;99.90;;;;;;5088327;28;20044;-74
2023/03/23 09:01:13;;;;;;;20.02;4.20;;;12.40;99.90;;;;;;5056644;28;20052;-75
2023/03/23 09:03:39;;;;;;;18.20;4.25;;;12.60;99.90;;;;;;5084043;28;20056;-75
2023/03/23 09:06:07;;;;;;;19.38;4.68;;;12.50;99.90;;;;;;5080419;28;20047;-75
2023/03/23 09:08:33;;;;;;;23.45;4.38;;;12.50;99.90;;;;;;5080089;28;20123;-76
2023/03/23 09:10:59;;;;;;;18.92;3.95;;;12.40;99.90;;;;;;5080922;28;20071;-75
2023/03/23 09:13:26;;;;;;;21.88;4.20;;;12.60;99.90;;;;;;5074625;28;20119;-75
2023/03/23 09:15:51;;;;;;;;;;;12.70;99.90;;;;;;5087103;28;20044;-75
2023/03/23 09:18:18;;;;;;;26.05;4.85;;;12.70;99.90;;;;;;5090837;28;19939;-75
2023/03/23 09:20:44;;;;;;;21.02;4.38;;;12.70;99.90;;;;;;5089822;28;20039;-75
2023/03/23 09:23:10;;;;;;;23.00;3.83;;;12.60;99.90;;;;;;5089167;28;20467;-74
2023/03/23 09:25:36;;;;;;;21.50;4.70;;;12.60;99.90;;;;;;5072481;28;20112;-76
2023/03/23 09:28:02;;;;;;;23.75;4.55;;;12.50;99.90;;;;;;5078692;28;20032;-75
2023/03/23 09:30:30;;;;;;;19.60;3.55;;;12.60;99.90;;;;;;5079328;28;20407;-75
2023/03/23 09:32:57;;;;;;;17.55;4.35;;;12.80;99.90;;;;;;5075261;28;20053;-75
2023/03/23 09:35:24;;;;;;;19.60;4.57;;;13.00;99.90;;;;;;5088834;28;20452;-75
2023/03/23 09:37:52;;;;;;;21.58;4.80;;;13.10;99.90;;;;;;5072597;28;20048;-75
2023/03/23 09:40:25;;;;;;;18.92;4.20;;;13.20;99.90;;;;;;5069570;28;20439;-75
2023/03/23 09:42:54;;;;;;;19.73;4.50;;;13.40;99.90;;;;;;5079098;28;20110;-75
2023/03/23 09:45:43;;;;;;;22.25;4.43;;;13.50;99.90;;;;;;5071060;28;20498;-75
2023/03/23 09:48:40;;;;;;;20.73;4.32;;;13.50;99.90;;;;;;5071491;28;20052;-75
2023/03/23 09:51:27;;;;;;;20.83;4.55;;;13.50;99.90;;;;;;5077871;28;20091;-75
2023/03/23 09:54:03;;;;;;;15.68;3.83;;;13.30;99.90;;;;;;5082416;28;20044;-75
2023/03/23 09:56:35;;;;;;;20.27;4.45;;;13.20;99.90;;;;;;5074847;28;20040;-75
2023/03/23 09:59:14;;;;;;;16.25;3.72;;;12.90;99.90;;;;;;5089308;28;20333;-75
2023/03/23 10:01:53;;;;;;;18.33;3.95;;;12.60;99.90;;;;;;5088723;28;20076;-70
2023/03/23 10:04:25;;;;;;;15.75;3.47;;;12.40;99.90;;;;;;5071362;28;20302;-70
2023/03/23 10:06:51;;;;;;;14.38;3.58;;;12.20;99.90;;;;;;5088118;28;20487;-70
2023/03/23 10:09:20;;;;;;;19.60;3.80;;;12.20;99.90;;;;;;5088646;28;20058;-70
2023/03/23 10:12:16;;;;;;;12.50;3.08;;;12.20;99.90;;;;;;5071399;28;20048;-71
2023/03/23 10:14:58;;;;;;;13.25;3.28;;;12.20;99.90;;;;;;5067194;28;20063;-70
2023/03/23 10:17:36;;;;;;;19.67;3.85;;;12.10;99.90;;;;;;5088623;28;20105;-70
2023/03/23 10:20:24;;;;;;;19.38;3.45;;;12.10;99.90;;;;;;5088207;28;20044;-71
2023/03/23 10:23:00;;;;;;;16.67;3.42;;;12.10;99.90;;;;;;5071447;28;20065;-70
2023/03/23 10:25:30;;;;;;;15.32;3.42;;;12.10;99.90;;;;;;5087481;28;20445;-70
2023/03/23 10:28:10;;;;;;;20.95;3.92;;;12.10;99.90;;;;;;5079115;28;20129;-70
2023/03/23 10:31:03;;;;;;;17.98;3.50;;;12.20;99.90;;;;;;5082273;28;20040;-70
2023/03/23 10:33:40;;;;;;;14.63;3.35;;;12.20;99.90;;;;;;5080201;28;20075;-71
2023/03/23 10:36:10;;;;;;;15.18;3.55;;;12.20;99.90;;;;;;5082016;28;20043;-71
2023/03/23 10:38:42;;;;;;;17.67;3.88;;;12.20;99.90;;;;;;5073706;28;20124;-71
2023/03/23 10:41:13;;;;;;;15.60;3.58;;;12.20;99.90;;;;;;5081628;28;20044;-71
2023/03/23 10:43:41;;;;;;;20.30;3.90;;;12.20;99.90;;;;;;5080690;28;20493;-72
2023/03/23 10:46:27;;;;;;;17.48;3.22;;;12.40;99.90;;;;;;5080646;28;20670;-72
2023/03/23 10:48:55;;;;;;;18.42;3.63;;;12.50;99.90;;;;;;5074499;28;20075;-72
2023/03/23 10:51:26;;;;;;;18.50;3.97;;;12.50;99.90;;;;;;5085986;28;20047;-72
2023/03/23 10:53:58;;;;;;;19.02;3.65;;;12.70;99.90;;;;;;5078329;28;20044;-72
2023/03/23 10:56:33;;;;;;;15.00;3.63;;;12.90;99.90;;;;;;5086775;28;20078;-72
2023/03/23 10:58:59;;;;;;;17.67;4.00;;;13.40;99.90;;;;;;5092779;28;20564;-71
2023/03/23 11:01:31;;;;;;;18.80;4.20;;;13.80;99.90;;;;;;5091486;28;20126;-72
2023/03/23 11:04:00;;;;;;;18.40;3.83;;;14.20;99.90;;;;;;5075488;28;20044;-70
2023/03/23 11:06:37;;;;;;;17.13;3.85;;;14.50;93.00;;;;;;5087827;28;20047;-71
2023/03/23 11:09:12;;;;;;;14.60;3.40;;;14.80;98.60;;;;;;5081473;28;20078;-71
2023/03/23 11:11:43;;;;;;;14.45;3.42;;;15.20;95.00;;;;;;5091258;28;20048;-71
2023/03/23 11:14:27;;;;;;;13.05;3.22;;;15.70;93.30;;;;;;5065183;28;20048;-71
2023/03/23 11:16:55;;;;;;;16.10;3.42;;;16.00;77.90;;;;;;5078076;28;20185;-71
2023/03/23 11:19:24;;;;;;;13.48;2.97;;;15.90;17.90;;;;;;5067150;28;20040;-72
2023/03/23 11:21:53;;;;;;;9.95;2.58;;;15.90;13.90;;;;;;5091196;28;20070;-72
2023/03/23 11:24:22;;;;;;;14.05;3.35;;;15.60;9.80;;;;;;5090948;28;20123;-71
2023/03/23 11:26:49;;;;;;;13.27;3.08;;;15.40;22.80;;;;;;5089851;28;20040;-71
2023/03/23 11:29:22;;;;;;;9.38;2.53;;;15.00;23.80;;;;;;5086072;28;20157;-71
2023/03/23 11:32:05;;;;;;;15.68;3.42;;;15.00;46.00;;;;;;5087612;28;20068;-71
2023/03/23 11:34:35;;;;;;;12.18;2.60;;;14.80;35.60;;;;;;5080361;28;20040;-71
2023/03/23 11:37:25;;;;;;;10.38;3.10;;;14.90;50.90;;;;;;5080620;28;20055;-71
2023/03/23 11:40:10;;;;;;;11.27;2.85;;;15.20;37.20;;;;;;5069310;28;20051;-71
2023/03/23 11:42:43;;;;;;;11.70;2.55;;;15.50;30.70;;;;;;5090574;28;20113;-70
2023/03/23 11:45:22;;;;;;;13.00;2.63;;;15.60;1.00;;;;;;5084342;28;20080;-70
2023/03/23 11:48:10;;;;;;;13.80;2.50;;;15.50;1.00;;;;;;5082427;28;20060;-70
2023/03/23 11:50:40;;;;;;;11.85;2.95;;;15.50;1.00;;;;;;5080507;28;20451;-70
2023/03/23 11:53:13;;;;;;;8.98;2.63;;;15.70;1.00;;;;;;5081344;28;20051;-71
2023/03/23 11:55:45;;;;;;;10.63;2.78;;;16.00;1.00;;;;;;5079427;28;20037;-70
2023/03/23 11:58:16;;;;;;;10.30;2.35;;;16.20;1.00;;;;;;5063441;28;20123;-70
2023/03/23 12:00:47;;;;;;;9.80;2.45;;;16.20;1.00;;;;;;5080256;28;20511;-71
2023/03/23 12:03:46;;;;;;;9.20;2.45;;;16.30;1.00;;;;;;5080980;28;20399;-70
2023/03/23 12:06:20;;;;;;;9.38;2.58;;;16.50;1.00;;;;;;5044653;28;20049;-70
2023/03/23 12:09:10;;;;;;;8.55;2.15;;;16.70;1.00;;;;;;5081869;28;20051;-71
2023/03/23 12:12:00;;;;;;;10.00;2.67;;;16.30;99.90;;;;;;5076625;28;20483;-70
2023/03/23 12:14:56;;;;;;;10.60;2.50;;;16.20;99.90;;;;;;5083743;28;20075;-71
2023/03/23 12:18:00;;;;;;;9.98;2.22;;;16.00;99.90;;;;;;5057261;28;20087;-71
2023/03/23 12:20:36;;;;;;;8.77;2.30;;;16.10;99.90;;;;;;5075186;28;20044;-69
2023/03/23 12:23:37;;;;;;;12.27;2.75;;;16.00;99.90;;;;;;5091033;28;20143;-70
2023/03/23 12:26:16;;;;;;;10.55;2.30;;;16.00;99.90;;;;;;5087993;28;20044;-72
2023/03/23 12:28:49;;;;;;;10.30;2.30;;;15.90;99.90;;;;;;5080790;28;20046;-71
2023/03/23 12:31:38;;;;;;;9.70;2.30;;;16.00;99.90;;;;;;5059131;28;20040;-71
2023/03/23 12:34:17;;;;;;;11.20;2.25;;;16.40;1.00;;;;;;5088525;28;20048;-71
2023/03/23 12:37:19;;;;;;;9.00;2.33;;;16.30;99.90;;;;;;5079261;28;20075;-70
2023/03/23 12:40:00;;;;;;;9.10;2.70;;;16.00;99.90;;;;;;5078446;28;20040;-71
2023/03/23 12:42:43;;;;;;;7.72;2.33;;;16.20;1.00;;;;;;5059740;28;20036;-71
2023/03/23 12:45:31;;;;;;;9.13;2.38;;;16.20;1.00;;;;;;5079048;28;20052;-71
2023/03/23 12:48:26;;;;;;;7.80;1.90;;;16.10;1.00;;;;;;5085512;28;20123;-72
2023/03/23 12:50:57;;;;;;;12.05;2.35;;;16.00;1.00;;;;;;5080827;28;20119;-72
2023/03/23 12:53:31;;;;;;;10.10;2.60;;;16.00;99.90;;;;;;5081514;28;20043;-71
2023/03/23 12:56:17;;;;;;;10.10;2.13;;;15.90;99.90;;;;;;5081236;28;20040;-72
2023/03/23 12:58:46;;;;;;;8.40;2.10;;;15.50;99.90;;;;;;5074456;28;20487;-72
2023/03/23 13:01:18;;;;;;;6.90;2.00;;;15.40;1.00;;;;;;5074303;28;20033;-71
2023/03/23 13:04:01;;;;;;;10.52;2.38;;;15.20;99.90;;;;;;5085687;28;20058;-72